sensor_id;sensor_type;location;lat;lon;timestamp;temperature;humidity
11497;DHT22;5805;51.542;7.230;2022-10-16T00:01:36;16.40;99.90
11497;DHT22;5805;51.542;7.230;2022-10-16T00:04:02;16.30;99.90
11497;DHT22;5805;51.542;7.230;2022-10-16T00:06:28;16.30;99.90
11497;DHT22;5805;51.542;7.230;2022-10-16T00:08:54;16.30;99.90
11497;DHT22;5805;51.542;7.230;2022-10-16T00:11:22;16.40;99.90
11497;DHT22;5805;51.542;7.230;2022-10-16T00:13:50;16.30;99.90
11497;DHT22;5805;51.542;7.230;2022-10-16T00:16:18;16.50;99.90
11497;DHT22;5805;51.542;7.230;2022-10-16T00:18:44;16.60;99.90
11497;DHT22;5805;51.542;7.230;2022-10-16T00:21:11;16.30;99.90
11497;DHT22;5805;51.542;7.230;2022-10-16T00:23:38;16.30;99.90
11497;DHT22;5805;51.542;7.230;2022-10-16T00:26:06;16.30;99.90
11497;DHT22;5805;51.542;7.230;2022-10-16T00:28:32;16.30;99.90
11497;DHT22;5805;51.542;7.230;2022-10-16T00:30:58;16.20;99.90
11497;DHT22;5805;51.542;7.230;2022-10-16T00:33:25;16.30;99.90
11497;DHT22;5805;51.542;7.230;2022-10-16T00:35:51;16.30;99.90
11497;DHT22;5805;51.542;7.230;2022-10-16T00:38:17;16.40;99.90
11497;DHT22;5805;51.542;7.230;2022-10-16T00:40:42;16.20;99.90
11497;DHT22;5805;51.542;7.230;2022-10-16T00:43:13;16.20;99.90
11497;DHT22;5805;51.542;7.230;2022-10-16T00:45:39;16.20;99.90
11497;DHT22;5805;51.542;7.230;2022-10-16T00:48:11;16.20;99.90
11497;DHT22;5805;51.542;7.230;2022-10-16T00:50:39;16.60;99.90
11497;DHT22;5805;51.542;7.230;2022-10-16T00:53:05;16.20;99.90
11497;DHT22;5805;51.542;7.230;2022-10-16T00:55:31;16.20;99.90
11497;DHT22;5805;51.542;7.230;2022-10-16T00:57:57;16.20;99.90
11497;DHT22;5805;51.542;7.230;2022-10-16T01:00:25;16.20;99.90
11497;DHT22;5805;51.542;7.230;2022-10-16T01:02:52;16.20;99.90
11497;DHT22;5805;51.542;7.230;2022-10-16T01:05:18;16.20;99.90
11497;DHT22;5805;51.542;7.230;2022-10-16T01:07:52;16.90;99.90
11497;DHT22;5805;51.542;7.230;2022-10-16T01:10:27;16.20;99.90
11497;DHT22;5805;51.542;7.230;2022-10-16T01:13:00;16.20;99.90
11497;DHT22;5805;51.542;7.230;2022-10-16T01:15:29;16.10;99.90
11497;DHT22;5805;51.542;7.230;2022-10-16T01:18:00;16.10;99.90
11497;DHT22;5805;51.542;7.230;2022-10-16T01:20:30;16.10;99.90
11497;DHT22;5805;51.542;7.230;2022-10-16T01:23:04;16.10;99.90
11497;DHT22;5805;51.542;7.230;2022-10-16T01:25:39;16.10;99.90
11497;DHT22;5805;51.542;7.230;2022-10-16T01:28:14;16.10;99.90
11497;DHT22;5805;51.542;7.230;2022-10-16T01:30:42;16.10;99.90
11497;DHT22;5805;51.542;7.230;2022-10-16T01:33:13;16.00;99.90
11497;DHT22;5805;51.542;7.230;2022-10-16T01:35:43;16.00;99.90
11497;DHT22;5805;51.542;7.230;2022-10-16T01:38:14;16.40;99.90
11497;DHT22;5805;51.542;7.230;2022-10-16T01:40:44;16.00;99.90
11497;DHT22;5805;51.542;7.230;2022-10-16T01:43:14;16.00;99.90
11497;DHT22;5805;51.542;7.230;2022-10-16T01:45:41;16.00;99.90
11497;DHT22;5805;51.542;7.230;2022-10-16T01:48:12;15.90;99.90
11497;DHT22;5805;51.542;7.230;2022-10-16T01:50:40;15.90;99.90
11497;DHT22;5805;51.542;7.230;2022-10-16T01:53:11;16.10;99.90
11497;DHT22;5805;51.542;7.230;2022-10-16T01:55:41;15.90;99.90
11497;DHT22;5805;51.542;7.230;2022-10-16T01:58:09;15.90;99.90
11497;DHT22;5805;51.542;7.230;2022-10-16T02:00:39;16.30;99.90
11497;DHT22;5805;51.542;7.230;2022-10-16T02:03:06;15.80;99.90
11497;DHT22;5805;51.542;7.230;2022-10-16T02:05:36;15.80;99.90
11497;DHT22;5805;51.542;7.230;2022-10-16T02:08:04;15.80;99.90
11497;DHT22;5805;51.542;7.230;2022-10-16T02:10:30;15.80;99.90
11497;DHT22;5805;51.542;7.230;2022-10-16T02:13:00;15.80;99.90
11497;DHT22;5805;51.542;7.230;2022-10-16T02:15:27;15.80;99.90
11497;DHT22;5805;51.542;7.230;2022-10-16T02:17:54;15.80;99.90
11497;DHT22;5805;51.542;7.230;2022-10-16T02:20:22;15.80;99.90
11497;DHT22;5805;51.542;7.230;2022-10-16T02:22:51;16.00;99.90
11497;DHT22;5805;51.542;7.230;2022-10-16T02:25:20;15.80;99.90
11497;DHT22;5805;51.542;7.230;2022-10-16T02:27:51;15.90;99.90
11497;DHT22;5805;51.542;7.230;2022-10-16T02:30:22;15.80;99.90
11497;DHT22;5805;51.542;7.230;2022-10-16T02:32:50;15.90;99.90
11497;DHT22;5805;51.542;7.230;2022-10-16T02:35:19;16.20;99.90
11497;DHT22;5805;51.542;7.230;2022-10-16T02:37:46;15.90;99.90
11497;DHT22;5805;51.542;7.230;2022-10-16T02:40:13;16.10;99.90
11497;DHT22;5805;51.542;7.230;2022-10-16T02:42:40;16.00;99.90
11497;DHT22;5805;51.542;7.230;2022-10-16T02:45:07;16.00;99.90
11497;DHT22;5805;51.542;7.230;2022-10-16T02:47:34;16.00;99.90
11497;DHT22;5805;51.542;7.230;2022-10-16T02:49:59;16.50;99.90
11497;DHT22;5805;51.542;7.230;2022-10-16T02:52:26;16.10;99.90
11497;DHT22;5805;51.542;7.230;2022-10-16T02:54:52;16.10;99.90
11497;DHT22;5805;51.542;7.230;2022-10-16T02:57:18;16.10;99.90
11497;DHT22;5805;51.542;7.230;2022-10-16T02:59:44;16.00;99.90
11497;DHT22;5805;51.542;7.230;2022-10-16T03:02:10;16.00;99.90
11497;DHT22;5805;51.542;7.230;2022-10-16T03:04:35;16.00;99.90
11497;DHT22;5805;51.542;7.230;2022-10-16T03:07:01;16.10;99.90
11497;DHT22;5805;51.542;7.230;2022-10-16T03:09:28;16.10;99.90
11497;DHT22;5805;51.542;7.230;2022-10-16T03:11:54;16.10;99.90
11497;DHT22;5805;51.542;7.230;2022-10-16T03:14:20;16.10;99.90
11497;DHT22;5805;51.542;7.230;2022-10-16T03:16:45;16.50;99.90
11497;DHT22;5805;51.542;7.230;2022-10-16T03:19:11;16.10;99.90
11497;DHT22;5805;51.542;7.230;2022-10-16T03:21:37;16.10;99.90
11497;DHT22;5805;51.542;7.230;2022-10-16T03:24:03;16.10;99.90
11497;DHT22;5805;51.542;7.230;2022-10-16T03:26:30;16.10;99.90
11497;DHT22;5805;51.542;7.230;2022-10-16T03:28:56;16.10;99.90
11497;DHT22;5805;51.542;7.230;2022-10-16T03:31:21;16.10;99.90
11497;DHT22;5805;51.542;7.230;2022-10-16T03:33:47;16.10;99.90
11497;DHT22;5805;51.542;7.230;2022-10-16T03:36:13;16.60;99.90
11497;DHT22;5805;51.542;7.230;2022-10-16T03:38:38;16.10;99.90
11497;DHT22;5805;51.542;7.230;2022-10-16T03:41:04;16.40;99.90
11497;DHT22;5805;51.542;7.230;2022-10-16T03:43:31;16.00;99.90
11497;DHT22;5805;51.542;7.230;2022-10-16T03:45:57;16.10;99.90
11497;DHT22;5805;51.542;7.230;2022-10-16T03:48:23;16.20;99.90
11497;DHT22;5805;51.542;7.230;2022-10-16T03:50:48;16.00;99.90
11497;DHT22;5805;51.542;7.230;2022-10-16T03:53:14;16.00;99.90
11497;DHT22;5805;51.542;7.230;2022-10-16T03:55:41;16.40;99.90
11497;DHT22;5805;51.542;7.230;2022-10-16T03:58:06;16.10;99.90
11497;DHT22;5805;51.542;7.230;2022-10-16T04:00:34;16.10;99.90
11497;DHT22;5805;51.542;7.230;2022-10-16T04:03:00;15.90;99.90
11497;DHT22;5805;51.542;7.230;2022-10-16T04:05:25;16.20;99.90
11497;DHT22;5805;51.542;7.230;2022-10-16T04:07:51;16.10;99.90
11497;DHT22;5805;51.542;7.230;2022-10-16T04:10:17;15.80;99.90
11497;DHT22;5805;51.542;7.230;2022-10-16T04:12:42;15.80;99.90
11497;DHT22;5805;51.542;7.230;2022-10-16T04:15:09;15.80;99.90
11497;DHT22;5805;51.542;7.230;2022-10-16T04:17:36;15.70;99.90
11497;DHT22;5805;51.542;7.230;2022-10-16T04:20:01;15.70;99.90
11497;DHT22;5805;51.542;7.230;2022-10-16T04:22:27;15.70;99.90
11497;DHT22;5805;51.542;7.230;2022-10-16T04:24:53;15.70;99.90
11497;DHT22;5805;51.542;7.230;2022-10-16T04:27:18;15.70;99.90
11497;DHT22;5805;51.542;7.230;2022-10-16T04:29:44;15.70;99.90
11497;DHT22;5805;51.542;7.230;2022-10-16T04:32:10;15.90;99.90
11497;DHT22;5805;51.542;7.230;2022-10-16T04:34:39;15.70;99.90
11497;DHT22;5805;51.542;7.230;2022-10-16T04:37:05;15.70;99.90
11497;DHT22;5805;51.542;7.230;2022-10-16T04:39:30;15.70;99.90
11497;DHT22;5805;51.542;7.230;2022-10-16T04:41:56;15.80;99.90
11497;DHT22;5805;51.542;7.230;2022-10-16T04:44:22;15.70;99.90
11497;DHT22;5805;51.542;7.230;2022-10-16T04:46:49;15.70;99.90
11497;DHT22;5805;51.542;7.230;2022-10-16T04:49:15;15.60;99.90
11497;DHT22;5805;51.542;7.230;2022-10-16T04:51:42;15.60;99.90
11497;DHT22;5805;51.542;7.230;2022-10-16T04:54:08;15.60;99.90
11497;DHT22;5805;51.542;7.230;2022-10-16T04:56:34;15.60;99.90
11497;DHT22;5805;51.542;7.230;2022-10-16T04:58:59;16.10;99.90
11497;DHT22;5805;51.542;7.230;2022-10-16T05:01:25;15.60;99.90
11497;DHT22;5805;51.542;7.230;2022-10-16T05:03:51;15.60;99.90
11497;DHT22;5805;51.542;7.230;2022-10-16T05:06:16;15.60;99.90
11497;DHT22;5805;51.542;7.230;2022-10-16T05:08:43;16.10;99.90
11497;DHT22;5805;51.542;7.230;2022-10-16T05:11:09;16.00;99.90
11497;DHT22;5805;51.542;7.230;2022-10-16T05:13:34;15.60;99.90
11497;DHT22;5805;51.542;7.230;2022-10-16T05:16:00;16.00;99.90
11497;DHT22;5805;51.542;7.230;2022-10-16T05:18:26;15.60;99.90
11497;DHT22;5805;51.542;7.230;2022-10-16T05:20:51;15.60;99.90
11497;DHT22;5805;51.542;7.230;2022-10-16T05:23:17;15.70;99.90
11497;DHT22;5805;51.542;7.230;2022-10-16T05:25:52;15.70;99.90
11497;DHT22;5805;51.542;7.230;2022-10-16T05:28:17;15.70;99.90
11497;DHT22;5805;51.542;7.230;2022-10-16T05:30:43;15.70;99.90
11497;DHT22;5805;51.542;7.230;2022-10-16T05:33:09;15.70;99.90
11497;DHT22;5805;51.542;7.230;2022-10-16T05:35:34;15.70;99.90
11497;DHT22;5805;51.542;7.230;2022-10-16T05:38:00;15.70;99.90
11497;DHT22;5805;51.542;7.230;2022-10-16T05:40:26;15.70;99.90
11497;DHT22;5805;51.542;7.230;2022-10-16T05:42:56;15.70;99.90
11497;DHT22;5805;51.542;7.230;2022-10-16T05:45:21;15.70;99.90
11497;DHT22;5805;51.542;7.230;2022-10-16T05:47:47;15.70;99.90
11497;DHT22;5805;51.542;7.230;2022-10-16T05:50:13;15.70;99.90
11497;DHT22;5805;51.542;7.230;2022-10-16T05:52:39;15.70;99.90
11497;DHT22;5805;51.542;7.230;2022-10-16T05:55:05;15.70;99.90
11497;DHT22;5805;51.542;7.230;2022-10-16T05:57:31;15.60;99.90
11497;DHT22;5805;51.542;7.230;2022-10-16T05:59:58;15.90;99.90
11497;DHT22;5805;51.542;7.230;2022-10-16T06:02:24;15.70;99.90
11497;DHT22;5805;51.542;7.230;2022-10-16T06:04:51;15.70;99.90
11497;DHT22;5805;51.542;7.230;2022-10-16T06:07:17;15.70;99.90
11497;DHT22;5805;51.542;7.230;2022-10-16T06:09:42;15.70;99.90
11497;DHT22;5805;51.542;7.230;2022-10-16T06:12:08;15.70;99.90
11497;DHT22;5805;51.542;7.230;2022-10-16T06:14:34;15.70;99.90
11497;DHT22;5805;51.542;7.230;2022-10-16T06:17:01;15.70;99.90
11497;DHT22;5805;51.542;7.230;2022-10-16T06:19:26;15.70;99.90
11497;DHT22;5805;51.542;7.230;2022-10-16T06:21:52;15.70;99.90
11497;DHT22;5805;51.542;7.230;2022-10-16T06:24:17;15.70;99.90
11497;DHT22;5805;51.542;7.230;2022-10-16T06:26:43;15.70;99.90
11497;DHT22;5805;51.542;7.230;2022-10-16T06:29:09;15.70;99.90
11497;DHT22;5805;51.542;7.230;2022-10-16T06:31:34;15.60;99.90
11497;DHT22;5805;51.542;7.230;2022-10-16T06:34:01;16.00;99.90
11497;DHT22;5805;51.542;7.230;2022-10-16T06:36:27;15.70;99.90
11497;DHT22;5805;51.542;7.230;2022-10-16T06:38:53;15.80;99.90
11497;DHT22;5805;51.542;7.230;2022-10-16T06:41:21;15.70;99.90
11497;DHT22;5805;51.542;7.230;2022-10-16T06:43:47;15.70;99.90
11497;DHT22;5805;51.542;7.230;2022-10-16T06:46:15;15.70;99.90
11497;DHT22;5805;51.542;7.230;2022-10-16T06:48:41;15.70;99.90
11497;DHT22;5805;51.542;7.230;2022-10-16T06:51:11;15.70;99.90
11497;DHT22;5805;51.542;7.230;2022-10-16T06:53:39;16.00;99.90
11497;DHT22;5805;51.542;7.230;2022-10-16T06:56:09;15.90;99.90
11497;DHT22;5805;51.542;7.230;2022-10-16T06:58:34;15.80;99.90
11497;DHT22;5805;51.542;7.230;2022-10-16T07:01:00;15.90;99.90
11497;DHT22;5805;51.542;7.230;2022-10-16T07:03:26;16.40;99.90
11497;DHT22;5805;51.542;7.230;2022-10-16T07:05:51;16.00;99.90
11497;DHT22;5805;51.542;7.230;2022-10-16T07:08:18;16.10;99.90
11497;DHT22;5805;51.542;7.230;2022-10-16T07:10:44;16.10;99.90
11497;DHT22;5805;51.542;7.230;2022-10-16T07:13:10;16.10;99.90
11497;DHT22;5805;51.542;7.230;2022-10-16T07:15:35;16.10;99.90
11497;DHT22;5805;51.542;7.230;2022-10-16T07:18:01;16.10;99.90
11497;DHT22;5805;51.542;7.230;2022-10-16T07:20:27;16.10;99.90
11497;DHT22;5805;51.542;7.230;2022-10-16T07:22:52;16.00;99.90
11497;DHT22;5805;51.542;7.230;2022-10-16T07:25:19;16.00;99.90
11497;DHT22;5805;51.542;7.230;2022-10-16T07:27:45;16.20;99.90
11497;DHT22;5805;51.542;7.230;2022-10-16T07:30:11;16.00;99.90
11497;DHT22;5805;51.542;7.230;2022-10-16T07:32:36;16.40;99.90
11497;DHT22;5805;51.542;7.230;2022-10-16T07:35:02;15.90;99.90
11497;DHT22;5805;51.542;7.230;2022-10-16T07:37:28;15.90;99.90
11497;DHT22;5805;51.542;7.230;2022-10-16T07:39:53;15.90;99.90
11497;DHT22;5805;51.542;7.230;2022-10-16T07:42:20;15.90;99.90
11497;DHT22;5805;51.542;7.230;2022-10-16T07:44:46;16.00;99.90
11497;DHT22;5805;51.542;7.230;2022-10-16T07:47:11;16.00;99.90
11497;DHT22;5805;51.542;7.230;2022-10-16T07:49:37;16.00;99.90
11497;DHT22;5805;51.542;7.230;2022-10-16T07:52:03;16.10;99.90
11497;DHT22;5805;51.542;7.230;2022-10-16T07:54:29;16.20;99.90
11497;DHT22;5805;51.542;7.230;2022-10-16T07:56:54;16.20;99.90
11497;DHT22;5805;51.542;7.230;2022-10-16T07:59:21;16.30;99.90
11497;DHT22;5805;51.542;7.230;2022-10-16T08:01:49;16.40;99.90
11497;DHT22;5805;51.542;7.230;2022-10-16T08:04:14;16.40;99.90
11497;DHT22;5805;51.542;7.230;2022-10-16T08:06:40;16.50;99.90
11497;DHT22;5805;51.542;7.230;2022-10-16T08:09:06;16.60;99.90
11497;DHT22;5805;51.542;7.230;2022-10-16T08:11:32;16.70;99.90
11497;DHT22;5805;51.542;7.230;2022-10-16T08:13:58;16.80;99.90
11497;DHT22;5805;51.542;7.230;2022-10-16T08:16:25;17.00;99.90
11497;DHT22;5805;51.542;7.230;2022-10-16T08:18:51;17.00;99.90
11497;DHT22;5805;51.542;7.230;2022-10-16T08:21:18;17.10;99.90
11497;DHT22;5805;51.542;7.230;2022-10-16T08:23:44;17.20;99.90
11497;DHT22;5805;51.542;7.230;2022-10-16T08:26:09;17.30;99.90
11497;DHT22;5805;51.542;7.230;2022-10-16T08:28:36;17.40;99.90
11497;DHT22;5805;51.542;7.230;2022-10-16T08:31:06;17.50;99.90
11497;DHT22;5805;51.542;7.230;2022-10-16T08:33:33;17.60;99.90
11497;DHT22;5805;51.542;7.230;2022-10-16T08:35:59;17.60;99.90
11497;DHT22;5805;51.542;7.230;2022-10-16T08:38:24;17.70;99.90
11497;DHT22;5805;51.542;7.230;2022-10-16T08:40:50;17.80;99.90
11497;DHT22;5805;51.542;7.230;2022-10-16T08:43:35;17.90;99.90
11497;DHT22;5805;51.542;7.230;2022-10-16T08:46:19;18.10;99.90
11497;DHT22;5805;51.542;7.230;2022-10-16T08:48:50;18.20;99.90
11497;DHT22;5805;51.542;7.230;2022-10-16T08:51:20;18.30;99.90
11497;DHT22;5805;51.542;7.230;2022-10-16T08:53:49;18.40;99.90
11497;DHT22;5805;51.542;7.230;2022-10-16T08:56:17;18.50;99.90
11497;DHT22;5805;51.542;7.230;2022-10-16T08:58:43;18.70;99.90
11497;DHT22;5805;51.542;7.230;2022-10-16T09:01:12;18.80;99.90
11497;DHT22;5805;51.542;7.230;2022-10-16T09:03:54;18.90;99.90
11497;DHT22;5805;51.542;7.230;2022-10-16T09:06:34;19.00;99.90
11497;DHT22;5805;51.542;7.230;2022-10-16T09:09:21;19.10;99.90
11497;DHT22;5805;51.542;7.230;2022-10-16T09:11:55;19.20;99.90
11497;DHT22;5805;51.542;7.230;2022-10-16T09:14:36;19.30;99.90
11497;DHT22;5805;51.542;7.230;2022-10-16T09:17:16;19.40;99.90
11497;DHT22;5805;51.542;7.230;2022-10-16T09:19:48;19.50;99.90
11497;DHT22;5805;51.542;7.230;2022-10-16T09:22:17;19.60;99.90
11497;DHT22;5805;51.542;7.230;2022-10-16T09:24:43;19.90;99.90
11497;DHT22;5805;51.542;7.230;2022-10-16T09:27:10;20.10;99.90
11497;DHT22;5805;51.542;7.230;2022-10-16T09:29:36;20.10;99.90
11497;DHT22;5805;51.542;7.230;2022-10-16T09:32:10;20.20;99.90
11497;DHT22;5805;51.542;7.230;2022-10-16T09:34:40;20.30;99.90
11497;DHT22;5805;51.542;7.230;2022-10-16T09:37:13;20.40;99.90
11497;DHT22;5805;51.542;7.230;2022-10-16T09:39:46;20.50;99.90
11497;DHT22;5805;51.542;7.230;2022-10-16T09:42:15;20.50;99.90
11497;DHT22;5805;51.542;7.230;2022-10-16T09:44:41;20.40;99.90
11497;DHT22;5805;51.542;7.230;2022-10-16T09:47:14;20.40;99.90
11497;DHT22;5805;51.542;7.230;2022-10-16T09:49:51;20.40;99.90
11497;DHT22;5805;51.542;7.230;2022-10-16T09:52:19;20.50;99.90
11497;DHT22;5805;51.542;7.230;2022-10-16T09:54:55;20.60;99.90
11497;DHT22;5805;51.542;7.230;2022-10-16T09:57:21;20.70;99.90
11497;DHT22;5805;51.542;7.230;2022-10-16T09:59:49;20.70;99.90
11497;DHT22;5805;51.542;7.230;2022-10-16T10:02:16;20.80;99.90
11497;DHT22;5805;51.542;7.230;2022-10-16T10:04:49;20.80;99.90
11497;DHT22;5805;51.542;7.230;2022-10-16T10:07:23;20.90;99.90
11497;DHT22;5805;51.542;7.230;2022-10-16T10:09:49;20.90;99.90
11497;DHT22;5805;51.542;7.230;2022-10-16T10:12:19;20.90;99.90
11497;DHT22;5805;51.542;7.230;2022-10-16T10:14:47;20.90;99.90
11497;DHT22;5805;51.542;7.230;2022-10-16T10:17:16;20.80;99.90
11497;DHT22;5805;51.542;7.230;2022-10-16T10:19:46;20.80;99.90
11497;DHT22;5805;51.542;7.230;2022-10-16T10:22:29;20.80;99.90
11497;DHT22;5805;51.542;7.230;2022-10-16T10:24:56;20.80;99.90
11497;DHT22;5805;51.542;7.230;2022-10-16T10:27:27;20.90;99.90
11497;DHT22;5805;51.542;7.230;2022-10-16T10:29:59;20.90;99.90
11497;DHT22;5805;51.542;7.230;2022-10-16T10:32:32;21.00;99.90
11497;DHT22;5805;51.542;7.230;2022-10-16T10:35:12;21.00;99.90
11497;DHT22;5805;51.542;7.230;2022-10-16T10:38:00;21.00;99.90
11497;DHT22;5805;51.542;7.230;2022-10-16T10:40:39;21.10;99.90
11497;DHT22;5805;51.542;7.230;2022-10-16T10:43:16;21.40;99.90
11497;DHT22;5805;51.542;7.230;2022-10-16T10:45:46;21.60;99.90
11497;DHT22;5805;51.542;7.230;2022-10-16T10:48:47;21.80;99.90
11497;DHT22;5805;51.542;7.230;2022-10-16T10:51:20;22.00;99.90
11497;DHT22;5805;51.542;7.230;2022-10-16T10:53:56;21.90;99.90
11497;DHT22;5805;51.542;7.230;2022-10-16T10:56:44;21.90;99.90
11497;DHT22;5805;51.542;7.230;2022-10-16T10:59:32;22.00;99.90
11497;DHT22;5805;51.542;7.230;2022-10-16T11:02:10;22.00;99.80
11497;DHT22;5805;51.542;7.230;2022-10-16T11:05:14;22.00;99.90
11497;DHT22;5805;51.542;7.230;2022-10-16T11:07:47;22.00;98.40
11497;DHT22;5805;51.542;7.230;2022-10-16T11:10:19;22.10;99.30
11497;DHT22;5805;51.542;7.230;2022-10-16T11:12:48;22.10;99.90
11497;DHT22;5805;51.542;7.230;2022-10-16T11:15:18;22.20;99.90
11497;DHT22;5805;51.542;7.230;2022-10-16T11:17:49;22.20;99.40
11497;DHT22;5805;51.542;7.230;2022-10-16T11:20:20;22.20;99.90
11497;DHT22;5805;51.542;7.230;2022-10-16T11:22:50;22.40;99.00
11497;DHT22;5805;51.542;7.230;2022-10-16T11:25:21;22.40;99.60
11497;DHT22;5805;51.542;7.230;2022-10-16T11:27:51;22.40;98.90
11497;DHT22;5805;51.542;7.230;2022-10-16T11:30:21;22.50;97.80
11497;DHT22;5805;51.542;7.230;2022-10-16T11:32:56;22.60;98.30
11497;DHT22;5805;51.542;7.230;2022-10-16T11:35:28;22.70;97.20
11497;DHT22;5805;51.542;7.230;2022-10-16T11:37:59;22.80;97.30
11497;DHT22;5805;51.542;7.230;2022-10-16T11:40:32;22.90;95.80
11497;DHT22;5805;51.542;7.230;2022-10-16T11:43:04;23.00;95.60
11497;DHT22;5805;51.542;7.230;2022-10-16T11:45:36;23.20;95.70
11497;DHT22;5805;51.542;7.230;2022-10-16T11:48:12;23.30;94.70
11497;DHT22;5805;51.542;7.230;2022-10-16T11:50:43;23.50;94.90
11497;DHT22;5805;51.542;7.230;2022-10-16T11:53:16;23.50;93.50
11497;DHT22;5805;51.542;7.230;2022-10-16T11:55:48;23.60;92.40
11497;DHT22;5805;51.542;7.230;2022-10-16T11:58:22;23.70;92.80
11497;DHT22;5805;51.542;7.230;2022-10-16T12:00:57;23.80;93.70
11497;DHT22;5805;51.542;7.230;2022-10-16T12:03:28;23.80;92.90
11497;DHT22;5805;51.542;7.230;2022-10-16T12:06:06;23.70;92.30
11497;DHT22;5805;51.542;7.230;2022-10-16T12:08:36;23.60;92.40
11497;DHT22;5805;51.542;7.230;2022-10-16T12:11:22;23.60;92.30
11497;DHT22;5805;51.542;7.230;2022-10-16T12:13:48;23.60;90.80
11497;DHT22;5805;51.542;7.230;2022-10-16T12:16:22;23.50;91.40
11497;DHT22;5805;51.542;7.230;2022-10-16T12:18:49;23.50;90.50
11497;DHT22;5805;51.542;7.230;2022-10-16T12:21:30;23.40;91.60
11497;DHT22;5805;51.542;7.230;2022-10-16T12:23:58;23.30;91.30
11497;DHT22;5805;51.542;7.230;2022-10-16T12:26:28;23.20;91.50
11497;DHT22;5805;51.542;7.230;2022-10-16T12:28:55;23.10;91.50
11497;DHT22;5805;51.542;7.230;2022-10-16T12:31:22;23.00;91.90
11497;DHT22;5805;51.542;7.230;2022-10-16T12:33:58;22.80;92.20
11497;DHT22;5805;51.542;7.230;2022-10-16T12:36:28;22.60;92.50
11497;DHT22;5805;51.542;7.230;2022-10-16T12:38:54;22.40;93.10
11497;DHT22;5805;51.542;7.230;2022-10-16T12:41:27;22.20;94.20
11497;DHT22;5805;51.542;7.230;2022-10-16T12:43:53;22.20;94.70
11497;DHT22;5805;51.542;7.230;2022-10-16T12:46:33;22.20;95.10
11497;DHT22;5805;51.542;7.230;2022-10-16T12:49:14;22.20;94.20
11497;DHT22;5805;51.542;7.230;2022-10-16T12:51:42;22.30;94.90
11497;DHT22;5805;51.542;7.230;2022-10-16T12:54:13;22.60;94.40
11497;DHT22;5805;51.542;7.230;2022-10-16T12:56:50;22.70;93.10
11497;DHT22;5805;51.542;7.230;2022-10-16T12:59:25;22.70;92.70
11497;DHT22;5805;51.542;7.230;2022-10-16T13:02:13;22.70;91.80
11497;DHT22;5805;51.542;7.230;2022-10-16T13:04:55;22.60;92.00
11497;DHT22;5805;51.542;7.230;2022-10-16T13:07:38;22.50;93.00
11497;DHT22;5805;51.542;7.230;2022-10-16T13:10:15;22.40;92.90
11497;DHT22;5805;51.542;7.230;2022-10-16T13:12:56;22.30;93.00
11497;DHT22;5805;51.542;7.230;2022-10-16T13:15:39;22.20;93.20
11497;DHT22;5805;51.542;7.230;2022-10-16T13:18:13;22.10;93.40
11497;DHT22;5805;51.542;7.230;2022-10-16T13:20:52;22.00;94.00
11497;DHT22;5805;51.542;7.230;2022-10-16T13:23:24;21.90;94.70
11497;DHT22;5805;51.542;7.230;2022-10-16T13:26:01;21.90;95.40
11497;DHT22;5805;51.542;7.230;2022-10-16T13:28:34;21.80;95.10
11497;DHT22;5805;51.542;7.230;2022-10-16T13:31:01;21.70;94.90
11497;DHT22;5805;51.542;7.230;2022-10-16T13:33:32;21.60;95.60
11497;DHT22;5805;51.542;7.230;2022-10-16T13:35:58;21.50;95.40
11497;DHT22;5805;51.542;7.230;2022-10-16T13:38:25;21.50;95.50
11497;DHT22;5805;51.542;7.230;2022-10-16T13:40:54;21.40;95.60
11497;DHT22;5805;51.542;7.230;2022-10-16T13:43:23;21.40;95.80
11497;DHT22;5805;51.542;7.230;2022-10-16T13:45:59;21.40;95.70
11497;DHT22;5805;51.542;7.230;2022-10-16T13:48:26;21.40;95.60
11497;DHT22;5805;51.542;7.230;2022-10-16T13:50:59;21.30;96.00
11497;DHT22;5805;51.542;7.230;2022-10-16T13:53:24;21.30;96.50
11497;DHT22;5805;51.542;7.230;2022-10-16T13:55:50;21.40;96.90
11497;DHT22;5805;51.542;7.230;2022-10-16T13:58:16;21.40;96.30
11497;DHT22;5805;51.542;7.230;2022-10-16T14:00:53;21.30;96.40
11497;DHT22;5805;51.542;7.230;2022-10-16T14:03:21;21.20;95.70
11497;DHT22;5805;51.542;7.230;2022-10-16T14:05:49;21.20;95.90
11497;DHT22;5805;51.542;7.230;2022-10-16T14:08:15;21.10;96.20
11497;DHT22;5805;51.542;7.230;2022-10-16T14:10:41;21.10;96.30
11497;DHT22;5805;51.542;7.230;2022-10-16T14:13:12;21.00;95.90
11497;DHT22;5805;51.542;7.230;2022-10-16T14:15:40;21.00;96.10
11497;DHT22;5805;51.542;7.230;2022-10-16T14:18:05;21.00;96.50
11497;DHT22;5805;51.542;7.230;2022-10-16T14:20:33;21.20;96.90
11497;DHT22;5805;51.542;7.230;2022-10-16T14:23:01;21.20;96.20
11497;DHT22;5805;51.542;7.230;2022-10-16T14:25:29;21.20;96.00
11497;DHT22;5805;51.542;7.230;2022-10-16T14:28:00;21.30;96.20
11497;DHT22;5805;51.542;7.230;2022-10-16T14:30:27;21.30;95.50
11497;DHT22;5805;51.542;7.230;2022-10-16T14:32:54;21.20;95.70
11497;DHT22;5805;51.542;7.230;2022-10-16T14:35:25;21.10;96.30
11497;DHT22;5805;51.542;7.230;2022-10-16T14:37:54;21.00;96.20
11497;DHT22;5805;51.542;7.230;2022-10-16T14:40:22;20.90;96.80
11497;DHT22;5805;51.542;7.230;2022-10-16T14:42:49;20.80;97.40
11497;DHT22;5805;51.542;7.230;2022-10-16T14:45:19;20.60;98.40
11497;DHT22;5805;51.542;7.230;2022-10-16T14:47:49;20.60;98.50
11497;DHT22;5805;51.542;7.230;2022-10-16T14:50:16;20.60;99.20
11497;DHT22;5805;51.542;7.230;2022-10-16T14:52:41;20.60;99.90
11497;DHT22;5805;51.542;7.230;2022-10-16T14:55:09;20.70;99.90
11497;DHT22;5805;51.542;7.230;2022-10-16T14:57:36;20.80;99.70
11497;DHT22;5805;51.542;7.230;2022-10-16T15:00:03;21.10;99.90
11497;DHT22;5805;51.542;7.230;2022-10-16T15:02:30;21.00;99.90
11497;DHT22;5805;51.542;7.230;2022-10-16T15:04:57;21.10;99.40
11497;DHT22;5805;51.542;7.230;2022-10-16T15:07:23;21.20;99.00
11497;DHT22;5805;51.542;7.230;2022-10-16T15:09:49;21.10;99.30
11497;DHT22;5805;51.542;7.230;2022-10-16T15:12:16;21.00;99.90
11497;DHT22;5805;51.542;7.230;2022-10-16T15:14:42;21.00;99.90
11497;DHT22;5805;51.542;7.230;2022-10-16T15:17:09;20.80;99.90
11497;DHT22;5805;51.542;7.230;2022-10-16T15:19:35;20.70;99.90
11497;DHT22;5805;51.542;7.230;2022-10-16T15:22:01;20.70;99.90
11497;DHT22;5805;51.542;7.230;2022-10-16T15:24:26;20.70;99.90
11497;DHT22;5805;51.542;7.230;2022-10-16T15:26:52;20.70;99.90
11497;DHT22;5805;51.542;7.230;2022-10-16T15:29:19;20.70;99.90
11497;DHT22;5805;51.542;7.230;2022-10-16T15:31:45;20.60;99.90
11497;DHT22;5805;51.542;7.230;2022-10-16T15:34:11;20.60;99.90
11497;DHT22;5805;51.542;7.230;2022-10-16T15:36:38;20.60;99.90
11497;DHT22;5805;51.542;7.230;2022-10-16T15:39:04;20.50;99.90
11497;DHT22;5805;51.542;7.230;2022-10-16T15:41:30;20.50;99.90
11497;DHT22;5805;51.542;7.230;2022-10-16T15:43:55;20.50;99.90
11497;DHT22;5805;51.542;7.230;2022-10-16T15:46:23;20.50;99.90
11497;DHT22;5805;51.542;7.230;2022-10-16T15:48:51;20.40;99.90
11497;DHT22;5805;51.542;7.230;2022-10-16T15:51:20;20.40;99.90
11497;DHT22;5805;51.542;7.230;2022-10-16T15:53:46;20.40;99.90
11497;DHT22;5805;51.542;7.230;2022-10-16T15:56:13;20.30;99.90